Terminal Aerodrome Forecast
Issued by NWS

Home | Current Version | Previous Version | Graphics & Text | Print | Product List | Glossary On
Versions: 1 2 3 4 5 6 7 8 9 10 11 12 13 14 15 16 17 18 19 20
068
FTUS42 KMHX 151317 AAA
TAFOAJ
TAF AMD
KOAJ 151317Z 1513/1612 VRB03KT P6SM BKN008
      TEMPO 1513/1515 OVC005
     FM151500 VRB03KT P6SM SCT070
     FM152000 VRB04KT P6SM -SHRA VCTS BKN040CB
     FM160200 00000KT P6SM BKN035
     FM160700 00000KT 3SM BR SCT003 BKN050
      AMD LTD TO CLD VIS AND WIND=

USA.gov is the U.S. government's official web portal to all federal, state and local government web resources and services.